sensor_id;sensor_type;location;lat;lon;timestamp;P1;durP1;ratioP1;P2;durP2;ratioP2
56233;SDS011;42141;53.240;6.580;2023-02-07T00:00:32;30.85;;;7.22;;
56233;SDS011;42141;53.240;6.580;2023-02-07T00:02:57;20.20;;;6.82;;
56233;SDS011;42141;53.240;6.580;2023-02-07T00:05:23;19.23;;;7.43;;
56233;SDS011;42141;53.240;6.580;2023-02-07T00:07:49;25.08;;;8.10;;
56233;SDS011;42141;53.240;6.580;2023-02-07T00:10:15;26.77;;;7.95;;
56233;SDS011;42141;53.240;6.580;2023-02-07T00:12:40;23.95;;;7.88;;
56233;SDS011;42141;53.240;6.580;2023-02-07T00:15:06;21.17;;;7.88;;
56233;SDS011;42141;53.240;6.580;2023-02-07T00:17:33;19.05;;;7.43;;
56233;SDS011;42141;53.240;6.580;2023-02-07T00:19:58;22.58;;;8.25;;
56233;SDS011;42141;53.240;6.580;2023-02-07T00:22:24;31.27;;;8.65;;
56233;SDS011;42141;53.240;6.580;2023-02-07T00:24:50;25.48;;;7.20;;
56233;SDS011;42141;53.240;6.580;2023-02-07T00:27:15;23.95;;;7.75;;
56233;SDS011;42141;53.240;6.580;2023-02-07T00:29:41;23.75;;;7.25;;
56233;SDS011;42141;53.240;6.580;2023-02-07T00:32:07;28.90;;;7.90;;
56233;SDS011;42141;53.240;6.580;2023-02-07T00:34:33;28.67;;;7.45;;
56233;SDS011;42141;53.240;6.580;2023-02-07T00:37:01;20.77;;;8.10;;
56233;SDS011;42141;53.240;6.580;2023-02-07T00:39:30;23.42;;;7.75;;
56233;SDS011;42141;53.240;6.580;2023-02-07T00:41:56;23.00;;;7.53;;
56233;SDS011;42141;53.240;6.580;2023-02-07T00:44:22;23.05;;;9.38;;
56233;SDS011;42141;53.240;6.580;2023-02-07T00:46:48;26.23;;;8.38;;
56233;SDS011;42141;53.240;6.580;2023-02-07T00:49:13;20.35;;;7.50;;
56233;SDS011;42141;53.240;6.580;2023-02-07T00:51:39;19.80;;;8.13;;
56233;SDS011;42141;53.240;6.580;2023-02-07T00:54:05;26.23;;;9.25;;
56233;SDS011;42141;53.240;6.580;2023-02-07T00:56:31;18.42;;;9.07;;
56233;SDS011;42141;53.240;6.580;2023-02-07T00:58:57;38.33;;;10.00;;
56233;SDS011;42141;53.240;6.580;2023-02-07T01:01:23;26.85;;;9.93;;
56233;SDS011;42141;53.240;6.580;2023-02-07T01:03:51;24.15;;;9.43;;
56233;SDS011;42141;53.240;6.580;2023-02-07T01:06:18;21.63;;;7.60;;
56233;SDS011;42141;53.240;6.580;2023-02-07T01:08:44;21.20;;;7.95;;
56233;SDS011;42141;53.240;6.580;2023-02-07T01:11:11;18.42;;;8.32;;
56233;SDS011;42141;53.240;6.580;2023-02-07T01:13:39;24.33;;;8.48;;
56233;SDS011;42141;53.240;6.580;2023-02-07T01:16:15;29.40;;;9.20;;
56233;SDS011;42141;53.240;6.580;2023-02-07T01:18:43;21.55;;;8.55;;
56233;SDS011;42141;53.240;6.580;2023-02-07T01:21:12;25.27;;;9.50;;
56233;SDS011;42141;53.240;6.580;2023-02-07T01:23:43;23.35;;;9.27;;
56233;SDS011;42141;53.240;6.580;2023-02-07T01:26:09;29.95;;;8.52;;
56233;SDS011;42141;53.240;6.580;2023-02-07T01:28:34;25.35;;;9.32;;
56233;SDS011;42141;53.240;6.580;2023-02-07T01:31:03;28.55;;;10.23;;
56233;SDS011;42141;53.240;6.580;2023-02-07T01:33:31;19.00;;;8.93;;
56233;SDS011;42141;53.240;6.580;2023-02-07T01:35:57;19.80;;;8.75;;
56233;SDS011;42141;53.240;6.580;2023-02-07T01:38:23;30.05;;;9.60;;
56233;SDS011;42141;53.240;6.580;2023-02-07T01:40:48;20.27;;;10.25;;
56233;SDS011;42141;53.240;6.580;2023-02-07T01:43:16;26.33;;;11.07;;
56233;SDS011;42141;53.240;6.580;2023-02-07T01:45:46;19.67;;;7.23;;
56233;SDS011;42141;53.240;6.580;2023-02-07T01:48:13;27.38;;;9.65;;
56233;SDS011;42141;53.240;6.580;2023-02-07T01:50:44;23.50;;;10.63;;
56233;SDS011;42141;53.240;6.580;2023-02-07T01:53:13;23.90;;;10.77;;
56233;SDS011;42141;53.240;6.580;2023-02-07T01:55:41;25.40;;;9.65;;
56233;SDS011;42141;53.240;6.580;2023-02-07T01:58:09;20.15;;;9.13;;
56233;SDS011;42141;53.240;6.580;2023-02-07T02:00:35;17.75;;;9.95;;
56233;SDS011;42141;53.240;6.580;2023-02-07T02:03:02;22.92;;;10.55;;
56233;SDS011;42141;53.240;6.580;2023-02-07T02:05:29;32.38;;;9.20;;
56233;SDS011;42141;53.240;6.580;2023-02-07T02:07:56;30.23;;;10.73;;
56233;SDS011;42141;53.240;6.580;2023-02-07T02:10:23;30.05;;;10.25;;
56233;SDS011;42141;53.240;6.580;2023-02-07T02:23:43;31.25;;;9.38;;
56233;SDS011;42141;53.240;6.580;2023-02-07T02:29:14;79.25;;;13.18;;
56233;SDS011;42141;53.240;6.580;2023-02-07T02:32:32;48.75;;;11.90;;
56233;SDS011;42141;53.240;6.580;2023-02-07T02:35:18;44.38;;;11.52;;
56233;SDS011;42141;53.240;6.580;2023-02-07T02:43:14;29.05;;;12.10;;
56233;SDS011;42141;53.240;6.580;2023-02-07T02:45:51;55.88;;;12.07;;
56233;SDS011;42141;53.240;6.580;2023-02-07T02:48:31;28.90;;;10.82;;
56233;SDS011;42141;53.240;6.580;2023-02-07T02:50:58;34.75;;;12.27;;
56233;SDS011;42141;53.240;6.580;2023-02-07T02:53:24;25.77;;;12.45;;
56233;SDS011;42141;53.240;6.580;2023-02-07T02:55:55;34.58;;;11.35;;
56233;SDS011;42141;53.240;6.580;2023-02-07T03:04:08;30.48;;;12.35;;
56233;SDS011;42141;53.240;6.580;2023-02-07T03:13:38;106.07;;;16.00;;
56233;SDS011;42141;53.240;6.580;2023-02-07T03:21:17;30.45;;;11.93;;
56233;SDS011;42141;53.240;6.580;2023-02-07T03:24:00;63.85;;;14.85;;
56233;SDS011;42141;53.240;6.580;2023-02-07T03:26:30;30.42;;;13.25;;
56233;SDS011;42141;53.240;6.580;2023-02-07T03:28:57;36.60;;;13.90;;
56233;SDS011;42141;53.240;6.580;2023-02-07T03:31:25;31.20;;;13.90;;
56233;SDS011;42141;53.240;6.580;2023-02-07T03:33:55;30.05;;;14.48;;
56233;SDS011;42141;53.240;6.580;2023-02-07T03:36:31;28.83;;;12.10;;
56233;SDS011;42141;53.240;6.580;2023-02-07T03:39:01;33.33;;;13.70;;
56233;SDS011;42141;53.240;6.580;2023-02-07T03:41:28;37.60;;;14.95;;
56233;SDS011;42141;53.240;6.580;2023-02-07T03:43:59;34.58;;;14.23;;
56233;SDS011;42141;53.240;6.580;2023-02-07T03:46:37;32.35;;;13.15;;
56233;SDS011;42141;53.240;6.580;2023-02-07T03:49:04;41.58;;;15.63;;
56233;SDS011;42141;53.240;6.580;2023-02-07T03:51:31;37.08;;;14.90;;
56233;SDS011;42141;53.240;6.580;2023-02-07T03:53:58;38.88;;;15.02;;
56233;SDS011;42141;53.240;6.580;2023-02-07T03:56:24;49.15;;;15.85;;
56233;SDS011;42141;53.240;6.580;2023-02-07T03:58:49;42.45;;;14.57;;
56233;SDS011;42141;53.240;6.580;2023-02-07T04:01:15;39.67;;;14.85;;
56233;SDS011;42141;53.240;6.580;2023-02-07T04:03:41;61.72;;;16.13;;
56233;SDS011;42141;53.240;6.580;2023-02-07T04:06:07;52.08;;;16.42;;
56233;SDS011;42141;53.240;6.580;2023-02-07T04:08:33;40.83;;;16.17;;
56233;SDS011;42141;53.240;6.580;2023-02-07T04:10:59;53.05;;;15.63;;
56233;SDS011;42141;53.240;6.580;2023-02-07T04:13:27;37.75;;;15.85;;
56233;SDS011;42141;53.240;6.580;2023-02-07T04:15:53;40.55;;;15.35;;
56233;SDS011;42141;53.240;6.580;2023-02-07T04:18:19;46.20;;;14.43;;
56233;SDS011;42141;53.240;6.580;2023-02-07T04:20:45;31.77;;;15.23;;
56233;SDS011;42141;53.240;6.580;2023-02-07T04:23:11;36.40;;;15.95;;
56233;SDS011;42141;53.240;6.580;2023-02-07T04:25:37;32.15;;;15.10;;
56233;SDS011;42141;53.240;6.580;2023-02-07T04:28:03;33.10;;;15.27;;
56233;SDS011;42141;53.240;6.580;2023-02-07T04:30:28;43.03;;;15.75;;
56233;SDS011;42141;53.240;6.580;2023-02-07T04:32:56;40.25;;;16.75;;
56233;SDS011;42141;53.240;6.580;2023-02-07T04:35:22;33.40;;;16.98;;
56233;SDS011;42141;53.240;6.580;2023-02-07T04:37:47;37.63;;;16.73;;
56233;SDS011;42141;53.240;6.580;2023-02-07T04:40:13;37.38;;;18.52;;
56233;SDS011;42141;53.240;6.580;2023-02-07T04:42:39;29.85;;;15.98;;
56233;SDS011;42141;53.240;6.580;2023-02-07T04:45:05;34.47;;;17.50;;
56233;SDS011;42141;53.240;6.580;2023-02-07T04:47:31;32.42;;;16.45;;
56233;SDS011;42141;53.240;6.580;2023-02-07T04:49:57;36.83;;;17.60;;
56233;SDS011;42141;53.240;6.580;2023-02-07T04:52:23;30.85;;;15.75;;
56233;SDS011;42141;53.240;6.580;2023-02-07T04:54:49;27.90;;;14.88;;
56233;SDS011;42141;53.240;6.580;2023-02-07T04:57:15;32.03;;;15.10;;
56233;SDS011;42141;53.240;6.580;2023-02-07T04:59:41;31.17;;;15.70;;
56233;SDS011;42141;53.240;6.580;2023-02-07T05:02:06;31.95;;;16.13;;
56233;SDS011;42141;53.240;6.580;2023-02-07T05:04:32;36.15;;;17.02;;
56233;SDS011;42141;53.240;6.580;2023-02-07T05:06:58;33.72;;;15.15;;
56233;SDS011;42141;53.240;6.580;2023-02-07T05:09:24;39.13;;;16.88;;
56233;SDS011;42141;53.240;6.580;2023-02-07T05:11:49;37.13;;;15.95;;
56233;SDS011;42141;53.240;6.580;2023-02-07T05:14:15;32.13;;;16.17;;
56233;SDS011;42141;53.240;6.580;2023-02-07T05:16:41;39.45;;;16.73;;
56233;SDS011;42141;53.240;6.580;2023-02-07T05:19:06;36.47;;;17.38;;
56233;SDS011;42141;53.240;6.580;2023-02-07T05:21:32;30.10;;;16.77;;
56233;SDS011;42141;53.240;6.580;2023-02-07T05:23:58;33.25;;;17.27;;
56233;SDS011;42141;53.240;6.580;2023-02-07T05:26:24;34.97;;;16.40;;
56233;SDS011;42141;53.240;6.580;2023-02-07T05:28:49;33.80;;;15.95;;
56233;SDS011;42141;53.240;6.580;2023-02-07T05:31:15;37.17;;;16.27;;
56233;SDS011;42141;53.240;6.580;2023-02-07T05:33:41;34.67;;;16.25;;
56233;SDS011;42141;53.240;6.580;2023-02-07T05:36:06;35.20;;;16.08;;
56233;SDS011;42141;53.240;6.580;2023-02-07T05:38:34;35.08;;;16.02;;
56233;SDS011;42141;53.240;6.580;2023-02-07T05:41:00;36.38;;;15.55;;
56233;SDS011;42141;53.240;6.580;2023-02-07T05:43:25;38.53;;;17.10;;
56233;SDS011;42141;53.240;6.580;2023-02-07T05:45:54;36.45;;;16.35;;
56233;SDS011;42141;53.240;6.580;2023-02-07T05:48:20;31.83;;;15.40;;
56233;SDS011;42141;53.240;6.580;2023-02-07T05:50:46;34.25;;;16.40;;
56233;SDS011;42141;53.240;6.580;2023-02-07T05:53:12;33.15;;;16.70;;
56233;SDS011;42141;53.240;6.580;2023-02-07T05:55:38;29.45;;;14.85;;
56233;SDS011;42141;53.240;6.580;2023-02-07T05:58:03;31.38;;;15.65;;
56233;SDS011;42141;53.240;6.580;2023-02-07T06:00:29;31.23;;;16.35;;
56233;SDS011;42141;53.240;6.580;2023-02-07T06:02:55;30.40;;;14.50;;
56233;SDS011;42141;53.240;6.580;2023-02-07T06:05:21;34.33;;;15.93;;
56233;SDS011;42141;53.240;6.580;2023-02-07T06:07:51;32.90;;;15.48;;
56233;SDS011;42141;53.240;6.580;2023-02-07T06:10:17;30.45;;;15.73;;
56233;SDS011;42141;53.240;6.580;2023-02-07T06:12:46;30.35;;;14.85;;
56233;SDS011;42141;53.240;6.580;2023-02-07T06:15:11;33.92;;;16.52;;
56233;SDS011;42141;53.240;6.580;2023-02-07T06:17:37;33.92;;;15.45;;
56233;SDS011;42141;53.240;6.580;2023-02-07T06:20:03;32.35;;;17.80;;
56233;SDS011;42141;53.240;6.580;2023-02-07T06:22:29;32.65;;;15.90;;
56233;SDS011;42141;53.240;6.580;2023-02-07T06:24:55;35.95;;;16.70;;
56233;SDS011;42141;53.240;6.580;2023-02-07T06:27:21;32.38;;;16.23;;
56233;SDS011;42141;53.240;6.580;2023-02-07T06:29:46;37.55;;;18.25;;
56233;SDS011;42141;53.240;6.580;2023-02-07T06:32:12;35.70;;;17.20;;
56233;SDS011;42141;53.240;6.580;2023-02-07T06:34:38;36.08;;;16.13;;
56233;SDS011;42141;53.240;6.580;2023-02-07T06:37:03;29.80;;;16.35;;
56233;SDS011;42141;53.240;6.580;2023-02-07T06:39:29;35.35;;;17.13;;
56233;SDS011;42141;53.240;6.580;2023-02-07T06:41:55;28.35;;;14.77;;
56233;SDS011;42141;53.240;6.580;2023-02-07T06:44:21;37.05;;;16.65;;
56233;SDS011;42141;53.240;6.580;2023-02-07T06:46:46;40.75;;;18.17;;
56233;SDS011;42141;53.240;6.580;2023-02-07T06:49:12;36.22;;;17.05;;
56233;SDS011;42141;53.240;6.580;2023-02-07T06:51:38;36.47;;;16.55;;
56233;SDS011;42141;53.240;6.580;2023-02-07T06:54:03;39.40;;;16.02;;
56233;SDS011;42141;53.240;6.580;2023-02-07T06:56:34;31.67;;;16.10;;
56233;SDS011;42141;53.240;6.580;2023-02-07T06:59:00;35.80;;;17.83;;
56233;SDS011;42141;53.240;6.580;2023-02-07T07:01:26;35.97;;;16.52;;
56233;SDS011;42141;53.240;6.580;2023-02-07T07:03:51;44.17;;;16.73;;
56233;SDS011;42141;53.240;6.580;2023-02-07T07:06:17;38.45;;;16.88;;
56233;SDS011;42141;53.240;6.580;2023-02-07T07:08:43;43.40;;;18.08;;
56233;SDS011;42141;53.240;6.580;2023-02-07T07:11:09;38.95;;;16.48;;
56233;SDS011;42141;53.240;6.580;2023-02-07T07:13:35;32.13;;;17.05;;
56233;SDS011;42141;53.240;6.580;2023-02-07T07:16:00;38.70;;;17.75;;
56233;SDS011;42141;53.240;6.580;2023-02-07T07:18:26;39.30;;;17.95;;
56233;SDS011;42141;53.240;6.580;2023-02-07T07:20:52;37.20;;;18.98;;
56233;SDS011;42141;53.240;6.580;2023-02-07T07:23:19;38.35;;;18.75;;
56233;SDS011;42141;53.240;6.580;2023-02-07T07:25:45;37.55;;;20.45;;
56233;SDS011;42141;53.240;6.580;2023-02-07T07:28:10;36.88;;;19.33;;
56233;SDS011;42141;53.240;6.580;2023-02-07T07:30:36;43.97;;;20.45;;
56233;SDS011;42141;53.240;6.580;2023-02-07T07:33:02;39.92;;;19.52;;
56233;SDS011;42141;53.240;6.580;2023-02-07T07:35:27;41.10;;;20.27;;
56233;SDS011;42141;53.240;6.580;2023-02-07T07:37:53;37.50;;;19.33;;
56233;SDS011;42141;53.240;6.580;2023-02-07T07:40:19;40.13;;;18.65;;
56233;SDS011;42141;53.240;6.580;2023-02-07T07:42:45;36.90;;;19.23;;
56233;SDS011;42141;53.240;6.580;2023-02-07T07:45:10;38.97;;;18.73;;
56233;SDS011;42141;53.240;6.580;2023-02-07T07:47:37;37.67;;;17.95;;
56233;SDS011;42141;53.240;6.580;2023-02-07T07:50:03;39.40;;;19.38;;
56233;SDS011;42141;53.240;6.580;2023-02-07T07:52:30;41.08;;;17.95;;
56233;SDS011;42141;53.240;6.580;2023-02-07T07:54:56;36.28;;;18.70;;
56233;SDS011;42141;53.240;6.580;2023-02-07T07:57:22;35.70;;;17.67;;
56233;SDS011;42141;53.240;6.580;2023-02-07T07:59:52;33.83;;;18.10;;
56233;SDS011;42141;53.240;6.580;2023-02-07T08:02:19;34.35;;;17.25;;
56233;SDS011;42141;53.240;6.580;2023-02-07T08:04:45;33.55;;;16.58;;
56233;SDS011;42141;53.240;6.580;2023-02-07T08:07:11;34.10;;;17.00;;
56233;SDS011;42141;53.240;6.580;2023-02-07T08:09:36;34.22;;;15.75;;
56233;SDS011;42141;53.240;6.580;2023-02-07T08:12:03;30.55;;;16.20;;
56233;SDS011;42141;53.240;6.580;2023-02-07T08:14:29;27.70;;;14.52;;
56233;SDS011;42141;53.240;6.580;2023-02-07T08:16:54;36.28;;;17.02;;
56233;SDS011;42141;53.240;6.580;2023-02-07T08:19:20;29.02;;;15.90;;
56233;SDS011;42141;53.240;6.580;2023-02-07T08:21:46;34.47;;;16.00;;
56233;SDS011;42141;53.240;6.580;2023-02-07T08:24:11;30.80;;;16.17;;
56233;SDS011;42141;53.240;6.580;2023-02-07T08:26:37;34.00;;;16.05;;
56233;SDS011;42141;53.240;6.580;2023-02-07T08:29:03;36.30;;;17.40;;
56233;SDS011;42141;53.240;6.580;2023-02-07T08:31:29;29.80;;;14.73;;
56233;SDS011;42141;53.240;6.580;2023-02-07T08:33:55;34.00;;;15.35;;
56233;SDS011;42141;53.240;6.580;2023-02-07T08:36:20;27.00;;;15.38;;
56233;SDS011;42141;53.240;6.580;2023-02-07T08:38:46;30.58;;;16.42;;
56233;SDS011;42141;53.240;6.580;2023-02-07T08:41:12;26.25;;;16.13;;
56233;SDS011;42141;53.240;6.580;2023-02-07T08:43:38;28.48;;;14.88;;
56233;SDS011;42141;53.240;6.580;2023-02-07T08:46:04;32.75;;;15.93;;
56233;SDS011;42141;53.240;6.580;2023-02-07T08:48:30;32.72;;;15.10;;
56233;SDS011;42141;53.240;6.580;2023-02-07T08:50:55;28.60;;;15.88;;
56233;SDS011;42141;53.240;6.580;2023-02-07T08:53:21;23.30;;;13.45;;
56233;SDS011;42141;53.240;6.580;2023-02-07T08:55:47;32.78;;;13.55;;
56233;SDS011;42141;53.240;6.580;2023-02-07T08:58:13;26.92;;;14.63;;
56233;SDS011;42141;53.240;6.580;2023-02-07T09:00:38;25.60;;;14.05;;
56233;SDS011;42141;53.240;6.580;2023-02-07T09:03:04;26.95;;;13.35;;
56233;SDS011;42141;53.240;6.580;2023-02-07T09:05:30;24.30;;;13.90;;
56233;SDS011;42141;53.240;6.580;2023-02-07T09:08:00;18.88;;;11.95;;
56233;SDS011;42141;53.240;6.580;2023-02-07T09:10:26;22.27;;;12.23;;
56233;SDS011;42141;53.240;6.580;2023-02-07T09:12:52;21.40;;;12.48;;
56233;SDS011;42141;53.240;6.580;2023-02-07T09:15:18;22.85;;;13.45;;
56233;SDS011;42141;53.240;6.580;2023-02-07T09:17:43;28.98;;;13.55;;
56233;SDS011;42141;53.240;6.580;2023-02-07T09:20:09;19.75;;;11.85;;
56233;SDS011;42141;53.240;6.580;2023-02-07T09:22:35;22.35;;;11.73;;
56233;SDS011;42141;53.240;6.580;2023-02-07T09:25:21;16.00;;;10.40;;
56233;SDS011;42141;53.240;6.580;2023-02-07T09:27:48;20.67;;;9.85;;
56233;SDS011;42141;53.240;6.580;2023-02-07T09:30:14;15.88;;;10.10;;
56233;SDS011;42141;53.240;6.580;2023-02-07T09:32:40;16.10;;;9.82;;
56233;SDS011;42141;53.240;6.580;2023-02-07T09:35:06;14.68;;;10.23;;
56233;SDS011;42141;53.240;6.580;2023-02-07T09:37:32;13.27;;;8.20;;
56233;SDS011;42141;53.240;6.580;2023-02-07T09:39:59;17.58;;;9.50;;
56233;SDS011;42141;53.240;6.580;2023-02-07T09:45:07;16.70;;;8.85;;
56233;SDS011;42141;53.240;6.580;2023-02-07T09:47:36;15.35;;;7.80;;
56233;SDS011;42141;53.240;6.580;2023-02-07T09:50:13;14.30;;;9.13;;
56233;SDS011;42141;53.240;6.580;2023-02-07T09:52:46;17.48;;;9.00;;
56233;SDS011;42141;53.240;6.580;2023-02-07T09:58:20;16.60;;;9.68;;
56233;SDS011;42141;53.240;6.580;2023-02-07T10:00:58;14.70;;;9.18;;
56233;SDS011;42141;53.240;6.580;2023-02-07T10:03:30;15.15;;;8.93;;
56233;SDS011;42141;53.240;6.580;2023-02-07T10:05:58;16.17;;;9.32;;
56233;SDS011;42141;53.240;6.580;2023-02-07T10:08:29;14.75;;;8.40;;
56233;SDS011;42141;53.240;6.580;2023-02-07T10:14:01;16.77;;;9.82;;
56233;SDS011;42141;53.240;6.580;2023-02-07T10:27:36;16.23;;;9.95;;
56233;SDS011;42141;53.240;6.580;2023-02-07T10:30:48;16.73;;;9.18;;
56233;SDS011;42141;53.240;6.580;2023-02-07T10:33:23;22.23;;;10.20;;
56233;SDS011;42141;53.240;6.580;2023-02-07T10:35:53;18.85;;;9.63;;
56233;SDS011;42141;53.240;6.580;2023-02-07T10:43:59;19.90;;;10.82;;
56233;SDS011;42141;53.240;6.580;2023-02-07T10:46:25;23.80;;;10.80;;
56233;SDS011;42141;53.240;6.580;2023-02-07T10:48:51;16.08;;;10.27;;
56233;SDS011;42141;53.240;6.580;2023-02-07T10:51:40;21.10;;;9.68;;
56233;SDS011;42141;53.240;6.580;2023-02-07T10:56:43;18.40;;;11.23;;
56233;SDS011;42141;53.240;6.580;2023-02-07T11:05:00;21.45;;;10.35;;
56233;SDS011;42141;53.240;6.580;2023-02-07T11:07:29;17.13;;;9.73;;
56233;SDS011;42141;53.240;6.580;2023-02-07T11:10:16;22.33;;;11.35;;
56233;SDS011;42141;53.240;6.580;2023-02-07T11:12:49;21.92;;;10.57;;
56233;SDS011;42141;53.240;6.580;2023-02-07T11:15:21;23.05;;;12.48;;
56233;SDS011;42141;53.240;6.580;2023-02-07T11:17:52;20.10;;;10.30;;
56233;SDS011;42141;53.240;6.580;2023-02-07T11:22:58;23.90;;;10.95;;
56233;SDS011;42141;53.240;6.580;2023-02-07T11:25:28;24.40;;;10.63;;
56233;SDS011;42141;53.240;6.580;2023-02-07T11:27:55;18.65;;;9.98;;
56233;SDS011;42141;53.240;6.580;2023-02-07T11:30:22;22.80;;;10.77;;
56233;SDS011;42141;53.240;6.580;2023-02-07T11:32:57;23.15;;;11.00;;
56233;SDS011;42141;53.240;6.580;2023-02-07T11:35:25;18.27;;;10.27;;
56233;SDS011;42141;53.240;6.580;2023-02-07T11:38:01;19.40;;;10.43;;
56233;SDS011;42141;53.240;6.580;2023-02-07T11:43:09;19.98;;;10.73;;
56233;SDS011;42141;53.240;6.580;2023-02-07T11:45:41;21.95;;;10.75;;
56233;SDS011;42141;53.240;6.580;2023-02-07T11:48:28;18.50;;;11.45;;
56233;SDS011;42141;53.240;6.580;2023-02-07T11:50:57;17.40;;;11.25;;
56233;SDS011;42141;53.240;6.580;2023-02-07T11:53:27;20.00;;;10.82;;
56233;SDS011;42141;53.240;6.580;2023-02-07T11:59:05;23.10;;;10.88;;
56233;SDS011;42141;53.240;6.580;2023-02-07T12:01:39;21.15;;;11.27;;
56233;SDS011;42141;53.240;6.580;2023-02-07T12:04:14;26.27;;;12.48;;
56233;SDS011;42141;53.240;6.580;2023-02-07T12:06:49;22.02;;;10.55;;
56233;SDS011;42141;53.240;6.580;2023-02-07T12:11:59;22.13;;;11.40;;
56233;SDS011;42141;53.240;6.580;2023-02-07T12:14:32;24.23;;;11.25;;
56233;SDS011;42141;53.240;6.580;2023-02-07T12:17:04;20.55;;;11.13;;
56233;SDS011;42141;53.240;6.580;2023-02-07T12:19:48;24.55;;;12.00;;
56233;SDS011;42141;53.240;6.580;2023-02-07T12:22:29;17.48;;;11.20;;
56233;SDS011;42141;53.240;6.580;2023-02-07T12:25:04;25.48;;;10.95;;
56233;SDS011;42141;53.240;6.580;2023-02-07T12:27:44;18.98;;;11.55;;
56233;SDS011;42141;53.240;6.580;2023-02-07T12:30:30;19.55;;;11.60;;
56233;SDS011;42141;53.240;6.580;2023-02-07T12:33:08;20.52;;;10.73;;
56233;SDS011;42141;53.240;6.580;2023-02-07T12:38:29;23.15;;;12.18;;
56233;SDS011;42141;53.240;6.580;2023-02-07T12:43:39;23.48;;;12.30;;
56233;SDS011;42141;53.240;6.580;2023-02-07T12:46:20;23.40;;;11.48;;
56233;SDS011;42141;53.240;6.580;2023-02-07T12:48:53;23.05;;;11.13;;
56233;SDS011;42141;53.240;6.580;2023-02-07T12:57:02;21.63;;;10.30;;
56233;SDS011;42141;53.240;6.580;2023-02-07T12:59:40;23.60;;;11.63;;
56233;SDS011;42141;53.240;6.580;2023-02-07T13:08:18;23.05;;;10.73;;
56233;SDS011;42141;53.240;6.580;2023-02-07T13:19:48;22.13;;;10.90;;
56233;SDS011;42141;53.240;6.580;2023-02-07T13:25:15;24.50;;;12.02;;
56233;SDS011;42141;53.240;6.580;2023-02-07T13:27:47;21.20;;;11.40;;
56233;SDS011;42141;53.240;6.580;2023-02-07T13:30:16;18.05;;;11.05;;
56233;SDS011;42141;53.240;6.580;2023-02-07T13:32:43;22.20;;;11.45;;
56233;SDS011;42141;53.240;6.580;2023-02-07T13:35:12;20.38;;;11.25;;
56233;SDS011;42141;53.240;6.580;2023-02-07T13:46:11;22.05;;;12.75;;
56233;SDS011;42141;53.240;6.580;2023-02-07T13:48:53;18.88;;;10.88;;
56233;SDS011;42141;53.240;6.580;2023-02-07T13:51:28;18.45;;;8.93;;
56233;SDS011;42141;53.240;6.580;2023-02-07T13:54:04;13.48;;;9.65;;
56233;SDS011;42141;53.240;6.580;2023-02-07T13:56:56;18.45;;;10.57;;
56233;SDS011;42141;53.240;6.580;2023-02-07T13:59:42;19.10;;;9.98;;
56233;SDS011;42141;53.240;6.580;2023-02-07T14:02:27;16.13;;;9.70;;
56233;SDS011;42141;53.240;6.580;2023-02-07T14:04:55;17.10;;;10.48;;
56233;SDS011;42141;53.240;6.580;2023-02-07T14:07:27;21.40;;;10.90;;
56233;SDS011;42141;53.240;6.580;2023-02-07T14:14:50;18.63;;;10.60;;
56233;SDS011;42141;53.240;6.580;2023-02-07T14:19:52;23.77;;;10.43;;
56233;SDS011;42141;53.240;6.580;2023-02-07T14:27:25;25.02;;;10.85;;
56233;SDS011;42141;53.240;6.580;2023-02-07T14:30:15;20.63;;;10.18;;
56233;SDS011;42141;53.240;6.580;2023-02-07T14:38:35;18.52;;;9.60;;
56233;SDS011;42141;53.240;6.580;2023-02-07T14:41:05;20.33;;;11.38;;
56233;SDS011;42141;53.240;6.580;2023-02-07T14:46:14;24.90;;;10.68;;
56233;SDS011;42141;53.240;6.580;2023-02-07T14:51:23;18.17;;;10.30;;
56233;SDS011;42141;53.240;6.580;2023-02-07T15:02:27;20.05;;;10.32;;
56233;SDS011;42141;53.240;6.580;2023-02-07T15:05:26;19.33;;;10.45;;
56233;SDS011;42141;53.240;6.580;2023-02-07T15:10:24;17.70;;;9.52;;
56233;SDS011;42141;53.240;6.580;2023-02-07T15:12:53;15.45;;;9.00;;
56233;SDS011;42141;53.240;6.580;2023-02-07T15:17:48;17.65;;;9.35;;
56233;SDS011;42141;53.240;6.580;2023-02-07T15:20:19;16.92;;;8.93;;
56233;SDS011;42141;53.240;6.580;2023-02-07T15:22:53;21.20;;;9.40;;
56233;SDS011;42141;53.240;6.580;2023-02-07T15:25:21;20.33;;;8.77;;
56233;SDS011;42141;53.240;6.580;2023-02-07T15:28:05;17.55;;;9.43;;
56233;SDS011;42141;53.240;6.580;2023-02-07T15:33:59;21.63;;;9.93;;
56233;SDS011;42141;53.240;6.580;2023-02-07T15:36:37;16.23;;;7.88;;
56233;SDS011;42141;53.240;6.580;2023-02-07T15:39:06;17.33;;;8.70;;
56233;SDS011;42141;53.240;6.580;2023-02-07T15:41:43;14.93;;;8.93;;
56233;SDS011;42141;53.240;6.580;2023-02-07T15:47:29;16.40;;;8.88;;
56233;SDS011;42141;53.240;6.580;2023-02-07T15:52:31;14.93;;;8.48;;
56233;SDS011;42141;53.240;6.580;2023-02-07T15:55:13;14.55;;;8.57;;
56233;SDS011;42141;53.240;6.580;2023-02-07T15:57:42;15.20;;;8.90;;
56233;SDS011;42141;53.240;6.580;2023-02-07T16:02:41;16.73;;;8.88;;
56233;SDS011;42141;53.240;6.580;2023-02-07T16:05:34;14.35;;;8.32;;
56233;SDS011;42141;53.240;6.580;2023-02-07T16:08:03;17.83;;;8.77;;
56233;SDS011;42141;53.240;6.580;2023-02-07T16:10:32;19.02;;;8.90;;
56233;SDS011;42141;53.240;6.580;2023-02-07T16:13:16;17.42;;;9.07;;
56233;SDS011;42141;53.240;6.580;2023-02-07T16:21:08;16.85;;;8.68;;
56233;SDS011;42141;53.240;6.580;2023-02-07T16:23:52;16.63;;;8.73;;
56233;SDS011;42141;53.240;6.580;2023-02-07T16:26:30;20.88;;;9.77;;
56233;SDS011;42141;53.240;6.580;2023-02-07T16:28:59;19.10;;;9.00;;
56233;SDS011;42141;53.240;6.580;2023-02-07T16:31:29;18.98;;;9.95;;
56233;SDS011;42141;53.240;6.580;2023-02-07T16:33:58;19.05;;;9.93;;
56233;SDS011;42141;53.240;6.580;2023-02-07T16:36:27;21.33;;;12.05;;
56233;SDS011;42141;53.240;6.580;2023-02-07T16:38:53;30.73;;;20.17;;
56233;SDS011;42141;53.240;6.580;2023-02-07T16:41:26;30.85;;;19.83;;
56233;SDS011;42141;53.240;6.580;2023-02-07T16:43:57;32.42;;;20.25;;
56233;SDS011;42141;53.240;6.580;2023-02-07T16:46:24;28.60;;;18.05;;
56233;SDS011;42141;53.240;6.580;2023-02-07T16:48:50;34.25;;;20.85;;
56233;SDS011;42141;53.240;6.580;2023-02-07T16:51:16;28.30;;;17.15;;
56233;SDS011;42141;53.240;6.580;2023-02-07T16:53:42;28.98;;;16.95;;
56233;SDS011;42141;53.240;6.580;2023-02-07T16:56:12;35.10;;;21.85;;
56233;SDS011;42141;53.240;6.580;2023-02-07T16:58:42;31.63;;;23.67;;
56233;SDS011;42141;53.240;6.580;2023-02-07T17:01:11;29.08;;;18.33;;
56233;SDS011;42141;53.240;6.580;2023-02-07T17:03:41;24.85;;;16.27;;
56233;SDS011;42141;53.240;6.580;2023-02-07T17:06:10;23.27;;;13.18;;
56233;SDS011;42141;53.240;6.580;2023-02-07T17:08:41;21.35;;;10.63;;
56233;SDS011;42141;53.240;6.580;2023-02-07T17:11:11;16.35;;;9.40;;
56233;SDS011;42141;53.240;6.580;2023-02-07T17:13:39;13.00;;;7.18;;
56233;SDS011;42141;53.240;6.580;2023-02-07T17:16:08;21.17;;;10.10;;
56233;SDS011;42141;53.240;6.580;2023-02-07T17:18:38;20.10;;;10.48;;
56233;SDS011;42141;53.240;6.580;2023-02-07T17:21:04;21.30;;;12.43;;
56233;SDS011;42141;53.240;6.580;2023-02-07T17:23:32;22.65;;;13.50;;
56233;SDS011;42141;53.240;6.580;2023-02-07T17:25:58;30.25;;;16.23;;
56233;SDS011;42141;53.240;6.580;2023-02-07T17:28:23;26.38;;;12.43;;
56233;SDS011;42141;53.240;6.580;2023-02-07T17:30:49;22.30;;;12.63;;